• Join FlightAware (Why Join?)
  • Login
  • US Flag 
 
02:25PM EST


 

Airport Tracker/Info


-or-


 

Live Flight TrackerFlight Track Log ✈ AAL963 ✈ 29-Oct-2013 ✈ KDFW - SBGR / GRU

Flight Track Log - Related Links

Times and Time Zones

All times are in EDT time to prevent confusion due to time zone crossing. See the AAL963 flight status page for this flight to view local times or setup timezone preferences in your user account.

Time Position Orientation Groundspeed Altitude Reporting Facility
EDT Latitude Longitude Course Direction KTS MPH feet Rate Location/Type
10:01PM 32.8593 -97.0555 195° South 182 209 2,300  Level FlightAware ADS-B (KAFW)
10:02PM 32.8024 -97.0700 192° South 224 258 3,800 1,680 Climbing FlightAware ADS-B (KAFW)
10:02PM 32.7839 -97.0739 190° South 234 269 4,400 2,040 Climbing FlightAware ADS-B (KAFW)
10:03PM 32.7565 -97.0783 188° South 243 280 5,200 2,160 Climbing FlightAware ADS-B (KAFW)
10:03PM 32.7234 -97.0736 173° South 258 297 6,200 2,160 Climbing FlightAware ADS-B (KAFW)
10:03PM 32.7103 -97.0660 154° Southeast 267 307 6,700 2,220 Climbing FlightAware ADS-B (KAFW)
10:04PM 32.6912 -97.0539 152° Southeast 272 313 7,300 1,740 Climbing FlightAware ADS-B (KAFW)
10:04PM 32.6713 -97.0417 153° Southeast 281 323 7,800 2,280 Climbing FlightAware ADS-B (KAFW)
10:05PM 32.6180 -97.0100 153° Southeast 282 325 9,600 1,980 Climbing FlightAware
10:06PM 32.5620 -96.9770 154° Southeast 307 353 10,700 1,440 Climbing FlightAware
10:06PM 32.5194 -96.9516 153° Southeast 281 323 11,700 1,920 Climbing FlightAware ADS-B (KAFW)
10:07PM 32.4721 -96.9241 154° Southeast 334 384 13,100 2,400 Climbing FlightAware ADS-B (KAFW)
10:08PM 32.3710 -96.8650 154° Southeast 355 409 15,600 2,340 Climbing FlightAware
10:08PM 32.3439 -96.8495 154° Southeast 359 413 16,300 2,220 Climbing FlightAware ADS-B
10:09PM 32.2982 -96.8233 154° Southeast 365 420 17,400 1,980 Climbing FlightAware ADS-B
10:09PM 32.2450 -96.8000 160° South 369 425 18,500 2,040 Climbing FlightAware
10:10PM 32.2085 -96.7862 162° South 369 425 19,300 2,100 Climbing FlightAware ADS-B
10:10PM 32.1583 -96.7676 163° South 376 433 20,300 1,800 Climbing FlightAware ADS-B
10:11PM 32.1046 -96.7471 162° South 382 440 21,200 1,680 Climbing FlightAware ADS-B
10:11PM 32.0288 -96.7182 162° South 391 450 22,500 1,800 Climbing FlightAware ADS-B
10:12PM 31.9661 -96.6944 162° South 397 457 23,600 1,800 Climbing FlightAware ADS-B
10:12PM 31.9132 -96.6743 162° South 399 459 24,500 1,500 Climbing FlightAware ADS-B
10:13PM 31.8490 -96.6494 162° South 409 471 25,300 1,140 Climbing FlightAware ADS-B
10:14PM 31.7941 -96.6267 161° South 419 482 25,800 780 Climbing FlightAware ADS-B
10:14PM 31.7377 -96.6033 161° South 436 502 26,100 960 Climbing FlightAware ADS-B
10:15PM 31.6778 -96.5786 161° South 443 510 26,800 1,500 Climbing FlightAware ADS-B
10:15PM 31.6159 -96.5533 161° South 444 511 27,700 1,620 Climbing FlightAware ADS-B
10:16PM 31.5565 -96.5292 161° South 444 511 28,500 1,260 Climbing FlightAware ADS-B
10:16PM 31.4967 -96.5051 161° South 450 518 29,000 1,080 Climbing FlightAware ADS-B
10:17PM 31.4361 -96.4828 163° South 453 521 29,600 1,140 Climbing FlightAware ADS-B
10:17PM 31.3751 -96.4602 162° South 456 525 30,200 1,260 Climbing FlightAware ADS-B
10:18PM 31.3141 -96.4377 163° South 458 527 30,900 1,200 Climbing FlightAware ADS-B
10:18PM 31.2491 -96.4134 162° South 461 531 31,500 780 Climbing FlightAware ADS-B
10:18PM 31.2089 -96.3980 162° South 472 543 31,600 420 Climbing FlightAware ADS-B
10:19PM 31.1932 -96.3896 155° Southeast 481 554 31,700 720 Climbing FlightAware ADS-B
10:19PM 31.1769 -96.3784 150° Southeast 489 563 31,800 600 Climbing FlightAware ADS-B
10:19PM 31.1588 -96.3628 144° Southeast 499 574 31,900 600 Climbing FlightAware ADS-B
10:19PM 31.1417 -96.3433 136° Southeast 511 588 32,000 780 Climbing FlightAware ADS-B
10:19PM 31.1331 -96.3313 130° Southeast 517 595 32,100 900 Climbing FlightAware ADS-B
10:19PM 31.1225 -96.3142 126° Southeast 522 601 32,200 600 Climbing FlightAware ADS-B
10:20PM 31.0795 -96.2446 126° Southeast 529 609 32,500 660 Climbing FlightAware ADS-B
10:20PM 31.0367 -96.1743 125° Southeast 532 612 32,900 480 Climbing FlightAware ADS-B
10:21PM 30.9939 -96.1039 125° Southeast 530 610 33,000 60 Climbing FlightAware ADS-B
10:21PM 30.9508 -96.0335 126° Southeast 528 608 33,000  Level FlightAware ADS-B
10:22PM 30.9077 -95.9635 126° Southeast 528 608 33,000  Level FlightAware ADS-B
10:22PM 30.8637 -95.8925 126° Southeast 529 609 33,000  Level FlightAware ADS-B
10:23PM 30.8206 -95.8231 126° Southeast 529 609 33,000  Level FlightAware ADS-B
10:23PM 30.7755 -95.7506 126° Southeast 529 609 33,000  Level FlightAware ADS-B
10:24PM 30.7314 -95.6800 126° Southeast 527 606 33,000  Level FlightAware ADS-B
10:24PM 30.6883 -95.6110 126° Southeast 528 608 33,000  Level FlightAware ADS-B
10:25PM 30.6431 -95.5388 126° Southeast 528 608 33,000  Level FlightAware ADS-B
10:25PM 30.5979 -95.4666 126° Southeast 529 609 33,000  Level FlightAware ADS-B
10:26PM 30.5536 -95.3960 126° Southeast 529 609 33,000  Level FlightAware ADS-B
10:26PM 30.5103 -95.3271 126° Southeast 528 608 33,000  Level FlightAware ADS-B
10:27PM 30.4671 -95.2584 126° Southeast 527 606 33,000  Level FlightAware ADS-B
10:27PM 30.4234 -95.1891 126° Southeast 528 608 33,000  Level FlightAware ADS-B
10:28PM 30.3802 -95.1207 126° Southeast 528 608 33,000  Level FlightAware ADS-B
10:28PM 30.3358 -95.0504 126° Southeast 529 609 33,000  Level FlightAware ADS-B
10:29PM 30.2916 -94.9807 126° Southeast 529 609 33,000  Level FlightAware ADS-B
10:29PM 30.2477 -94.9115 126° Southeast 529 609 33,000  Level FlightAware ADS-B
10:30PM 30.2036 -94.8421 126° Southeast 528 608 33,000  Level FlightAware ADS-B
10:30PM 30.1601 -94.7737 126° Southeast 528 608 33,000  Level FlightAware ADS-B
10:31PM 30.1160 -94.7048 126° Southeast 529 609 33,000  Level FlightAware ADS-B
10:31PM 30.0720 -94.6359 126° Southeast 530 610 33,000  Level FlightAware ADS-B
10:32PM 30.0281 -94.5673 126° Southeast 531 611 33,000  Level FlightAware ADS-B
10:32PM 29.9838 -94.4981 126° Southeast 531 611 33,000  Level FlightAware ADS-B
10:33PM 29.9396 -94.4294 127° Southeast 530 610 33,000  Level FlightAware ADS-B
10:34PM 29.8958 -94.3614 127° Southeast 530 610 33,000  Level FlightAware ADS-B
10:34PM 29.8520 -94.2934 127° Southeast 530 610 33,000  Level FlightAware ADS-B
10:35PM 29.8076 -94.2246 127° Southeast 531 611 33,000  Level FlightAware ADS-B
10:35PM 29.7625 -94.1548 127° Southeast 531 611 33,000  Level FlightAware ADS-B
10:35PM 29.7338 -94.1138 129° Southeast 528 608 33,000  Level FlightAware ADS-B
10:36PM 29.7024 -94.0749 133° Southeast 524 603 33,000  Level FlightAware ADS-B
10:36PM 29.6602 -94.0303 137° Southeast 521 600 33,000  Level FlightAware ADS-B
10:37PM 29.6033 -93.9801 143° Southeast 518 596 33,000  Level FlightAware ADS-B
10:37PM 29.5456 -93.9312 144° Southeast 516 594 33,000  Level FlightAware ADS-B
10:38PM 29.4878 -93.8824 144° Southeast 516 594 33,000  Level FlightAware ADS-B
10:38PM 29.4294 -93.8330 144° Southeast 515 593 33,000  Level FlightAware ADS-B
10:38PM 29.4125 -93.8188 144° Southeast 516 594 33,000  Level FlightAware ADS-B
10:39PM 29.3707 -93.7834 144° Southeast 518 596 33,000  Level FlightAware ADS-B
10:39PM 29.3126 -93.7341 143° Southeast 519 597 33,000  Level FlightAware ADS-B
10:40PM 29.2545 -93.6849 144° Southeast 520 598 33,000  Level FlightAware ADS-B
10:40PM 29.1756 -93.6183 144° Southeast 520 598 33,000  Level FlightAware ADS-B
10:41PM 29.1162 -93.5682 144° Southeast 520 598 33,000  Level FlightAware ADS-B
10:41PM 29.0560 -93.5175 144° Southeast 521 600 33,000  Level FlightAware ADS-B
10:42PM 28.9753 -93.4497 144° Southeast 521 600 33,000  Level FlightAware ADS-B
10:42PM 28.9158 -93.3999 144° Southeast 521 600 33,000  Level FlightAware ADS-B
10:43PM 28.9240 -93.3970 17° North 515 593 33,000  Level FlightAware
10:44PM 28.8830 -93.3620 143° Southeast 515 593 33,000  Level FlightAware
10:45PM 28.7860 -93.2780 143° Southeast 515 593 33,000  Level FlightAware
10:46PM 28.7080 -93.2120 143° Southeast 515 593 33,000  Level FlightAware
10:46PM 28.6310 -93.1450 143° Southeast 515 593 33,000  Level FlightAware
10:47PM 28.5530 -93.0780 143° Southeast 515 593 33,000  Level FlightAware
10:48PM 28.5140 -93.0450 143° Southeast 515 593 33,000  Level FlightAware
10:48PM 28.4550 -92.9940 143° Southeast 515 593 33,000  Level FlightAware
10:49PM 28.1617 -92.7644 143° Southeast 517 595 33,000 -60 Level Houston Center
10:50PM 28.0450 -92.6658 143° Southeast 521 600 32,900  Descending Houston Center
10:51PM 27.9197 -92.5614 144° Southeast 523 602 33,000  Climbing Houston Center
10:52PM 27.8114 -92.4708 144° Southeast 522 601 33,000  Level Houston Center
10:53PM 27.6703 -92.3564 144° Southeast 521 600 33,000 -60 Level Houston Center
10:54PM 27.5536 -92.2603 144° Southeast 520 598 32,900 -60 Descending Houston Center
10:55PM 27.4369 -92.1633 144° Southeast 521 600 32,900  Level Houston Center
10:56PM 27.3267 -92.0750 145° Southeast 518 596 32,900  Level Houston Center
10:57PM 27.2028 -91.9725 144° Southeast 520 598 32,900  Level Houston Center
10:58PM 27.0922 -91.8819 144° Southeast 521 600 32,900  Level Houston Center
11:00PM 26.9623 -91.7702 143° Southeast  Level FlightAware Approximate
11:07PM 26.2047 -91.1687 145° Southeast  Level FlightAware Approximate
11:08PM 26.0963 -91.0835 145° Southeast  Level FlightAware Approximate
11:09PM 25.9878 -90.9984 145° Southeast  Level FlightAware Approximate
11:10PM 25.8793 -90.9134 145° Southeast  Level FlightAware Approximate
11:11PM 25.7707 -90.8286 145° Southeast  Level FlightAware Approximate
11:12PM 25.6621 -90.7439 145° Southeast  Level FlightAware Approximate
11:13PM 25.5534 -90.6594 145° Southeast  Level FlightAware Approximate
11:14PM 25.4447 -90.5751 145° Southeast  Level FlightAware Approximate
11:15PM 25.3360 -90.4909 145° Southeast  Level FlightAware Approximate
11:16PM 25.2271 -90.4069 145° Southeast  Level FlightAware Approximate
11:17PM 25.1183 -90.3230 145° Southeast  Level FlightAware Approximate
11:18PM 25.0094 -90.2393 145° Southeast  Level FlightAware Approximate
11:19PM 24.9004 -90.1557 145° Southeast  Level FlightAware Approximate
11:20PM 24.7914 -90.0722 145° Southeast  Level FlightAware Approximate
11:21PM 24.6824 -89.9889 145° Southeast  Level FlightAware Approximate
11:22PM 24.5733 -89.9058 145° Southeast  Level FlightAware Approximate
11:23PM 24.4682 -89.8173 136° Southeast  Level FlightAware Approximate
11:24PM 24.3724 -89.7164 136° Southeast  Level FlightAware Approximate
11:25PM 24.2766 -89.6156 136° Southeast  Level FlightAware Approximate
11:25PM 24.0470 -89.5090 136° Southeast 519 597 33,000  Level FlightAware
11:25PM 24.0130 -89.4840 146° Southeast 519 597 33,000  Level FlightAware
11:26PM 23.8980 -89.3980 146° Southeast 519 597 33,000  Level FlightAware
11:27PM 23.7760 -89.3050 145° Southeast 519 597 33,000  Level FlightAware
11:27PM 23.7080 -89.2550 146° Southeast 518 596 33,000  Level FlightAware
11:28PM 23.5990 -89.1720 145° Southeast 518 596 33,000  Level FlightAware
11:29PM 23.5390 -89.1270 145° Southeast 518 596 33,000  Level FlightAware
11:29PM 23.4680 -89.0740 146° Southeast 519 597 33,000  Level FlightAware
11:31PM 23.2600 -88.9190 146° Southeast 522 601 33,000  Level FlightAware
11:31PM 23.1500 -88.8380 146° Southeast 520 598 33,000  Level FlightAware
11:32PM 23.0870 -88.7910 146° Southeast 517 595 33,000  Level FlightAware
11:32PM 23.0430 -88.7580 145° Southeast 517 595 33,000  Level FlightAware
11:33PM 22.9370 -88.6790 146° Southeast 520 598 33,000  Level FlightAware
11:34PM 22.8580 -88.6210 146° Southeast 518 596 33,000  Level FlightAware
11:35PM 22.7450 -88.5380 146° Southeast 517 595 33,000  Level FlightAware
11:36PM 22.6470 -88.4660 146° Southeast 514 592 33,000  Level FlightAware
11:36PM 22.6080 -88.4350 144° Southeast 514 592 33,000  Level FlightAware
11:37PM 22.5060 -88.3370 138° Southeast 514 592 33,000  Level FlightAware
11:38PM 22.4220 -88.2500 136° Southeast 514 592 33,000  Level FlightAware
11:39PM 22.3300 -88.1570 137° Southeast 512 589 33,000  Level FlightAware
11:39PM 22.2740 -88.1010 137° Southeast 512 589 33,000  Level FlightAware
11:40PM 22.1810 -88.0070 137° Southeast 512 589 33,000  Level FlightAware
11:41PM 22.1200 -87.9450 137° Southeast 511 588 33,000  Level FlightAware
11:42PM 22.0300 -87.8540 137° Southeast 511 588 33,000  Level FlightAware
11:42PM 21.9460 -87.7700 137° Southeast 511 588 33,000  Level FlightAware
11:43PM 21.8510 -87.6740 137° Southeast 512 589 33,000  Level FlightAware
11:44PM 21.7520 -87.5760 137° Southeast 513 590 33,000  Level FlightAware
11:45PM 21.6950 -87.5190 137° Southeast 514 592 33,000  Level FlightAware
11:46PM 21.6010 -87.4260 137° Southeast 515 593 33,000  Level FlightAware
11:46PM 21.5200 -87.3460 137° Southeast 515 593 33,000  Level FlightAware
11:47PM 21.4180 -87.2450 137° Southeast 515 593 33,000  Level FlightAware
11:48PM 21.3200 -87.1490 138° Southeast 515 593 33,000  Level FlightAware
11:49PM 21.2430 -87.0730 137° Southeast 514 592 33,000  Level FlightAware
11:50PM 21.1450 -86.9770 138° Southeast 513 590 33,000  Level FlightAware
11:51PM 21.0670 -86.9000 137° Southeast 513 590 33,000  Level FlightAware
11:51PM 20.9860 -86.8210 138° Southeast 514 592 33,000  Level FlightAware
11:52PM 20.9070 -86.7440 138° Southeast 513 590 33,000  Level FlightAware
11:53PM 20.8140 -86.6540 138° Southeast 513 590 33,000  Level FlightAware
11:54PM 20.7190 -86.5620 138° Southeast 513 590 33,000  Level FlightAware
11:55PM 20.6130 -86.4600 138° Southeast 512 589 33,000  Level FlightAware
11:56PM 20.5120 -86.3620 138° Southeast 511 588 33,000  Level FlightAware
11:57PM 20.4200 -86.2730 138° Southeast 511 588 33,000  Level FlightAware
11:58PM 20.3290 -86.1860 138° Southeast 511 588 33,000  Level FlightAware
11:59PM 20.2440 -86.1040 138° Southeast 512 589 33,000  Level FlightAware
11:59PM 20.1570 -86.0200 138° Southeast 513 590 33,000  Level FlightAware
12:00AM 20.0740 -85.9410 138° Southeast 514 592 33,000  Level FlightAware
12:01AM 19.9820 -85.8540 138° Southeast 515 593 33,000  Level FlightAware
12:02AM 19.9250 -85.8000 138° Southeast 515 593 33,000  Level FlightAware
12:02AM 19.8610 -85.7400 139° Southeast 514 592 33,000  Level FlightAware
12:03AM 19.7750 -85.6580 138° Southeast 514 592 33,000  Level FlightAware
12:04AM 19.6860 -85.5740 138° Southeast 515 593 33,000  Level FlightAware
12:05AM 19.6010 -85.4950 139° Southeast 513 590 33,000  Level FlightAware
12:05AM 19.5080 -85.4080 139° Southeast 512 589 33,000  Level FlightAware
12:06AM 19.4560 -85.3600 139° Southeast 512 589 33,000  Level FlightAware
12:06AM 19.3940 -85.3010 138° Southeast 511 588 33,000  Level FlightAware
12:08AM 19.2980 -85.2100 138° Southeast 511 588 33,000  Level FlightAware
12:08AM 19.2450 -85.1590 138° Southeast 511 588 33,000  Level FlightAware
12:09AM 19.1550 -85.0730 138° Southeast 511 588 33,000  Level FlightAware
12:10AM 19.0650 -84.9880 138° Southeast 511 588 33,000  Level FlightAware
12:11AM 19.0300 -84.9540 137° Southeast 511 588 33,000  Level FlightAware
12:11AM 18.9490 -84.8770 138° Southeast 511 588 33,000  Level FlightAware
12:12AM 18.9130 -84.8430 138° Southeast 511 588 33,000  Level FlightAware
12:12AM 18.8590 -84.7920 138° Southeast 511 588 33,000  Level FlightAware
12:13AM 18.7880 -84.7230 137° Southeast 511 588 33,000  Level FlightAware
12:14AM 18.7160 -84.6550 138° Southeast 511 588 33,000  Level FlightAware
12:15AM 18.6440 -84.5870 138° Southeast 511 588 33,000  Level FlightAware
12:15AM 18.5900 -84.5360 138° Southeast 511 588 33,000  Level FlightAware
12:16AM 18.5550 -84.5020 137° Southeast 511 588 33,000  Level FlightAware
12:19AM 18.2958 -84.2479 137° Southeast  Level Estimated
12:20AM 18.1986 -84.1529 137° Southeast  Level Estimated
12:21AM 18.1012 -84.0579 137° Southeast  Level Estimated
12:22AM 18.0039 -83.9631 137° Southeast  Level Estimated
12:23AM 17.9065 -83.8683 137° Southeast  Level Estimated
12:24AM 17.8090 -83.7736 137° Southeast  Level Estimated
12:25AM 17.7115 -83.6791 137° Southeast  Level Estimated
12:26AM 17.6140 -83.5846 137° Southeast  Level Estimated
12:27AM 17.5164 -83.4903 137° Southeast  Level Estimated
12:28AM 17.4188 -83.3961 137° Southeast  Level Estimated
12:29AM 17.3211 -83.3019 137° Southeast  Level Estimated
12:30AM 17.2234 -83.2079 137° Southeast  Level Estimated
12:31AM 17.1256 -83.1139 137° Southeast  Level Estimated
12:32AM 17.0278 -83.0201 137° Southeast  Level Estimated
12:33AM 16.9299 -82.9264 137° Southeast  Level Estimated
12:34AM 16.8320 -82.8327 138° Southeast  Level Estimated
12:35AM 16.7341 -82.7392 138° Southeast  Level Estimated
12:36AM 16.6361 -82.6457 138° Southeast  Level Estimated
12:37AM 16.5381 -82.5524 138° Southeast  Level Estimated
12:38AM 16.4400 -82.4591 138° Southeast  Level Estimated
12:39AM 16.3419 -82.3659 138° Southeast  Level Estimated
12:40AM 16.2438 -82.2728 138° Southeast  Level Estimated
12:41AM 16.1456 -82.1799 138° Southeast  Level Estimated
12:42AM 16.0474 -82.0870 138° Southeast  Level Estimated
12:43AM 15.9491 -81.9942 138° Southeast  Level Estimated
12:44AM 15.8508 -81.9015 138° Southeast  Level Estimated
12:45AM 15.7524 -81.8088 138° Southeast  Level Estimated
12:46AM 15.6540 -81.7163 138° Southeast  Level Estimated
12:47AM 15.5556 -81.6239 138° Southeast  Level Estimated
12:48AM 15.4572 -81.5315 138° Southeast  Level Estimated
12:49AM 15.3587 -81.4393 138° Southeast  Level Estimated
12:50AM 15.2601 -81.3471 138° Southeast  Level Estimated
12:51AM 15.1615 -81.2550 138° Southeast  Level Estimated
12:52AM 15.0629 -81.1630 138° Southeast  Level Estimated
12:53AM 14.9643 -81.0711 138° Southeast  Level Estimated
12:54AM 14.8656 -80.9792 138° Southeast  Level Estimated
12:55AM 14.7669 -80.8875 138° Southeast  Level Estimated
12:56AM 14.6681 -80.7958 138° Southeast  Level Estimated
12:57AM 14.5693 -80.7042 138° Southeast  Level Estimated
12:58AM 14.4705 -80.6127 138° Southeast  Level Estimated
12:59AM 14.3716 -80.5213 138° Southeast  Level Estimated
01:00AM 14.2727 -80.4300 138° Southeast  Level Estimated
01:01AM 14.1738 -80.3387 138° Southeast  Level Estimated
01:02AM 14.0748 -80.2475 138° Southeast  Level Estimated
01:03AM 13.9758 -80.1564 138° Southeast  Level Estimated
01:04AM 13.8768 -80.0654 138° Southeast  Level Estimated
01:05AM 13.7777 -79.9745 138° Southeast  Level Estimated
01:06AM 13.6786 -79.8836 138° Southeast  Level Estimated
01:07AM 13.5795 -79.7928 138° Southeast  Level Estimated
01:08AM 13.4803 -79.7021 138° Southeast  Level Estimated
01:09AM 13.3811 -79.6115 138° Southeast  Level Estimated
01:10AM 13.2818 -79.5209 138° Southeast  Level Estimated
01:11AM 13.1826 -79.4304 138° Southeast  Level Estimated
01:12AM 13.0833 -79.3400 138° Southeast  Level Estimated
01:13AM 12.9839 -79.2496 138° Southeast  Level Estimated
01:14AM 12.8846 -79.1593 138° Southeast  Level Estimated
01:15AM 12.7852 -79.0692 138° Southeast  Level Estimated
01:16AM 12.6858 -78.9790 139° Southeast  Level Estimated
01:17AM 12.5863 -78.8890 139° Southeast  Level Estimated
01:18AM 12.4868 -78.7990 139° Southeast  Level Estimated
01:19AM 12.3873 -78.7091 139° Southeast  Level Estimated
01:20AM 12.2878 -78.6192 139° Southeast  Level Estimated
01:21AM 12.1882 -78.5294 139° Southeast  Level Estimated
01:22AM 12.0886 -78.4397 139° Southeast  Level Estimated
01:23AM 11.9890 -78.3500 139° Southeast  Level Estimated
01:24AM 11.8893 -78.2605 139° Southeast  Level Estimated
01:25AM 11.7896 -78.1709 139° Southeast  Level Estimated
01:26AM 11.6899 -78.0815 139° Southeast  Level Estimated
01:26AM 10.9980 -77.4470 139° Southeast 492 566 33,000  Level FlightAware
01:27AM 11.5902 -77.9921 139° Southeast  Level Estimated
01:27AM 10.8900 -77.3530 139° Southeast 490 564 33,000  Level FlightAware
01:28AM 11.4904 -77.9028 139° Southeast  Level Estimated
01:28AM 10.8040 -77.2720 137° Southeast 487 560 33,000  Level FlightAware
01:29AM 10.7270 -77.1980 137° Southeast 487 560 33,000  Level FlightAware
01:30AM 10.6770 -77.1490 136° Southeast 487 560 33,000  Level FlightAware
01:30AM 10.6050 -77.0870 140° Southeast 490 564 33,000  Level FlightAware
01:31AM 10.4900 -76.9800 138° Southeast 492 566 33,000  Level FlightAware
01:32AM 10.4220 -76.9170 138° Southeast 498 573 33,000  Level FlightAware
01:33AM 10.3330 -76.8340 137° Southeast 498 573 33,000  Level FlightAware
01:34AM 10.2280 -76.7370 138° Southeast 500 575 33,000  Level FlightAware
01:35AM 10.1480 -76.6620 137° Southeast 499 574 33,000  Level FlightAware
01:35AM 10.1090 -76.6250 137° Southeast 499 574 33,000  Level FlightAware
01:36AM 10.0710 -76.5910 139° Southeast 498 573 33,000  Level FlightAware
01:36AM 9.9770 -76.5040 138° Southeast 498 573 33,000  Level FlightAware
01:38AM 9.8620 -76.3970 137° Southeast 499 574 33,000  Level FlightAware
01:38AM 9.7940 -76.3350 138° Southeast 499 574 33,000  Level FlightAware
01:39AM 9.7500 -76.2940 137° Southeast 499 574 33,000  Level FlightAware
01:40AM 9.6590 -76.2100 138° Southeast 499 574 33,000  Level FlightAware
01:41AM 9.5460 -76.1050 137° Southeast 500 575 33,000  Level FlightAware
01:41AM 9.4750 -76.0400 138° Southeast 500 575 33,000  Level FlightAware
01:42AM 9.4280 -75.9970 138° Southeast 500 575 33,000  Level FlightAware
01:43AM 9.3300 -75.9060 137° Southeast 500 575 33,000  Level FlightAware
01:43AM 9.2560 -75.8390 138° Southeast 501 577 33,000  Level FlightAware
01:44AM 9.2150 -75.8010 138° Southeast 501 577 33,000  Level FlightAware
01:45AM 9.1190 -75.7120 138° Southeast 496 571 33,000  Level FlightAware
01:46AM 8.9980 -75.6010 138° Southeast 496 571 33,000  Level FlightAware
01:46AM 8.9560 -75.5630 138° Southeast 495 570 33,000  Level FlightAware
01:48AM 8.8390 -75.4560 138° Southeast 496 571 33,000  Level FlightAware
01:48AM 8.7670 -75.3890 137° Southeast 495 570 33,000  Level FlightAware
01:49AM 8.6800 -75.3100 138° Southeast 497 572 33,000  Level FlightAware
01:50AM 8.5910 -75.2280 138° Southeast 493 567 33,000  Level FlightAware
01:51AM 8.4650 -75.1130 138° Southeast 491 565 33,000  Level FlightAware
01:52AM 8.4170 -75.0690 138° Southeast 490 564 33,000  Level FlightAware
01:52AM 8.3830 -75.0370 137° Southeast 490 564 33,000  Level FlightAware
01:53AM 8.2750 -74.9390 138° Southeast 490 564 33,000  Level FlightAware
01:54AM 8.1800 -74.8520 138° Southeast 491 565 33,000  Level FlightAware
01:55AM 8.0940 -74.7740 138° Southeast 492 566 33,000  Level FlightAware
01:56AM 8.0040 -74.6910 138° Southeast 491 565 33,000  Level FlightAware
01:56AM 7.9590 -74.6500 138° Southeast 490 564 33,000  Level FlightAware
01:57AM 7.9000 -74.5970 138° Southeast 490 564 33,000  Level FlightAware
01:57AM 7.8520 -74.5530 138° Southeast 491 565 33,000  Level FlightAware
01:58AM 7.7510 -74.4610 138° Southeast 490 564 33,000  Level FlightAware
01:59AM 7.6470 -74.3670 138° Southeast 491 565 33,000  Level FlightAware
02:00AM 7.5550 -74.2830 138° Southeast 491 565 33,000  Level FlightAware
02:01AM 7.5050 -74.2370 138° Southeast 491 565 33,000 180 Level FlightAware
02:01AM 7.4450 -74.1830 138° Southeast 492 566 33,200 960 Climbing FlightAware
02:02AM 7.3530 -74.0850 133° Southeast 485 558 34,600 960 Climbing FlightAware
02:03AM 7.2860 -73.9920 126° Southeast 488 562 35,000 240 Climbing FlightAware
02:04AM 7.2310 -73.9140 125° Southeast 489 563 35,000  Level FlightAware
02:05AM 7.1710 -73.8280 125° Southeast 491 565 35,000  Level FlightAware
02:06AM 7.1060 -73.7350 125° Southeast 492 566 35,000  Level FlightAware
02:07AM 7.0170 -73.5950 123° Southeast 492 566 35,000  Level FlightAware
02:07AM 6.9620 -73.5040 121° Southeast 494 568 35,000  Level FlightAware
02:08AM 6.9190 -73.4340 122° Southeast 495 570 35,000  Level FlightAware
02:09AM 6.8340 -73.3210 127° Southeast 496 571 35,000  Level FlightAware
02:09AM 6.7860 -73.2880 146° Southeast 498 573 35,000  Level FlightAware
02:10AM 6.6740 -73.2170 148° Southeast 499 574 35,000  Level FlightAware
02:11AM 6.6520 -73.2040 150° Southeast 499 574 35,000  Level FlightAware
02:12AM 6.5650 -73.1540 150° Southeast 499 574 35,000  Level FlightAware
02:13AM 6.4630 -73.0950 150° Southeast 499 574 35,000  Level FlightAware
02:14AM 6.3610 -73.0360 150° Southeast 499 574 35,000  Level FlightAware
02:15AM 6.2570 -72.9750 150° Southeast 499 574 35,000  Level FlightAware
02:15AM 6.1960 -72.9400 150° Southeast 499 574 35,000  Level FlightAware
02:16AM 6.1330 -72.9030 150° Southeast 499 574 35,000  Level FlightAware
02:17AM 6.0500 -72.8550 150° Southeast 499 574 35,000  Level FlightAware
02:17AM 5.9890 -72.8190 150° Southeast 499 574 35,000  Level FlightAware
02:18AM 5.9480 -72.7960 151° Southeast 499 574 35,000  Level FlightAware
02:18AM 5.8870 -72.7600 150° Southeast 499 574 35,000  Level FlightAware
02:19AM 5.8260 -72.7250 150° Southeast 499 574 35,000  Level FlightAware
02:20AM 5.7240 -72.6660 150° Southeast 499 574 35,000  Level FlightAware
02:21AM 5.6420 -72.6180 150° Southeast 499 574 35,000  Level FlightAware
02:24AM 5.3434 -72.3636 140° Southeast  Level Estimated
02:25AM 5.2421 -72.2775 140° Southeast  Level Estimated
02:26AM 5.1409 -72.1913 140° Southeast  Level Estimated
02:27AM 5.0396 -72.1052 140° Southeast  Level Estimated
02:28AM 4.9383 -72.0191 140° Southeast  Level Estimated
02:29AM 4.8370 -71.9331 140° Southeast  Level Estimated
02:30AM 4.7357 -71.8470 140° Southeast  Level Estimated
02:31AM 4.6343 -71.7610 140° Southeast  Level Estimated
02:32AM 4.5330 -71.6750 140° Southeast  Level Estimated
02:33AM 4.4319 -71.5892 140° Southeast  Level Estimated
02:34AM 4.3307 -71.5035 140° Southeast  Level Estimated
02:35AM 4.2295 -71.4177 140° Southeast  Level Estimated
02:36AM 4.1283 -71.3320 140° Southeast  Level Estimated
02:37AM 4.0271 -71.2462 140° Southeast  Level Estimated
02:38AM 3.9259 -71.1606 140° Southeast  Level Estimated
02:39AM 3.8247 -71.0749 140° Southeast  Level Estimated
02:40AM 3.7235 -70.9892 140° Southeast  Level Estimated
02:41AM 3.6222 -70.9036 140° Southeast  Level Estimated
02:42AM 3.5210 -70.8180 140° Southeast  Level Estimated
02:43AM 3.4197 -70.7324 140° Southeast  Level Estimated
02:44AM 3.3185 -70.6468 140° Southeast  Level Estimated
02:45AM 3.2172 -70.5612 140° Southeast  Level Estimated
02:46AM 3.1159 -70.4757 140° Southeast  Level Estimated
02:47AM 3.0147 -70.3902 140° Southeast  Level Estimated
02:48AM 2.9134 -70.3047 140° Southeast  Level Estimated
02:49AM 2.8121 -70.2192 140° Southeast  Level Estimated
02:50AM 2.7108 -70.1337 140° Southeast  Level Estimated
02:51AM 2.6095 -70.0482 140° Southeast  Level Estimated
02:52AM 2.5082 -69.9628 140° Southeast  Level Estimated
02:53AM 2.4069 -69.8773 140° Southeast  Level Estimated
02:54AM 2.3055 -69.7919 140° Southeast  Level Estimated
02:55AM 2.2042 -69.7065 140° Southeast  Level Estimated
02:56AM 2.1029 -69.6211 140° Southeast  Level Estimated
02:57AM 2.0015 -69.5357 140° Southeast  Level Estimated
02:58AM 1.9004 -69.4505 140° Southeast  Level Estimated
02:59AM 1.7992 -69.3652 140° Southeast  Level Estimated
03:00AM 1.6980 -69.2800 140° Southeast  Level Estimated
03:01AM 1.5969 -69.1948 140° Southeast  Level Estimated
03:02AM 1.4957 -69.1096 140° Southeast  Level Estimated
03:03AM 1.3945 -69.0245 140° Southeast  Level Estimated
03:04AM 1.2933 -68.9393 140° Southeast  Level Estimated
03:05AM 1.1921 -68.8541 140° Southeast  Level Estimated
03:06AM 1.0910 -68.7690 140° Southeast  Level Estimated
03:07AM 0.9898 -68.6838 140° Southeast  Level Estimated
03:08AM 0.8886 -68.5986 140° Southeast  Level Estimated
03:09AM 0.7874 -68.5135 140° Southeast  Level Estimated
03:10AM 0.6862 -68.4283 140° Southeast  Level Estimated
03:11AM 0.5850 -68.3432 140° Southeast  Level Estimated
03:12AM 0.4838 -68.2581 140° Southeast  Level Estimated
03:13AM 0.3826 -68.1729 140° Southeast  Level Estimated
03:14AM 0.2814 -68.0878 140° Southeast  Level Estimated
03:15AM 0.1802 -68.0027 140° Southeast  Level Estimated
03:16AM 0.0790 -67.9175 140° Southeast  Level Estimated
03:17AM -0.0222 -67.8324 140° Southeast  Level Estimated
03:18AM -0.1234 -67.7473 140° Southeast  Level Estimated
03:19AM -0.2246 -67.6621 140° Southeast  Level Estimated
03:20AM -0.3258 -67.5770 140° Southeast  Level Estimated
03:21AM -0.4270 -67.4919 140° Southeast  Level Estimated
03:22AM -0.5282 -67.4067 140° Southeast  Level Estimated
03:23AM -0.6294 -67.3216 140° Southeast  Level Estimated
03:24AM -0.7306 -67.2365 140° Southeast  Level Estimated
03:25AM -0.8318 -67.1513 140° Southeast  Level Estimated
03:26AM -0.9330 -67.0662 140° Southeast  Level Estimated
03:27AM -1.0342 -66.9810 140° Southeast  Level Estimated
03:28AM -1.1354 -66.8958 140° Southeast  Level Estimated
03:29AM -1.2366 -66.8107 140° Southeast  Level Estimated
03:30AM -1.3378 -66.7255 140° Southeast  Level Estimated
03:31AM -1.4389 -66.6403 140° Southeast  Level Estimated
03:32AM -1.5401 -66.5551 140° Southeast  Level Estimated
03:33AM -1.6413 -66.4699 140° Southeast  Level Estimated
03:34AM -1.7425 -66.3847 140° Southeast  Level Estimated
03:35AM -1.8436 -66.2995 140° Southeast  Level Estimated
03:36AM -1.9448 -66.2143 140° Southeast  Level Estimated
03:37AM -2.0459 -66.1291 140° Southeast  Level Estimated
03:38AM -2.1471 -66.0438 140° Southeast  Level Estimated
03:39AM -2.2483 -65.9585 140° Southeast  Level Estimated
03:40AM -2.3494 -65.8733 140° Southeast  Level Estimated
03:41AM -2.4505 -65.7880 140° Southeast  Level Estimated
03:42AM -2.5517 -65.7027 140° Southeast  Level Estimated
03:43AM -2.6528 -65.6174 140° Southeast  Level Estimated
03:44AM -2.7539 -65.5321 140° Southeast  Level Estimated
03:45AM -2.8550 -65.4467 140° Southeast  Level Estimated
03:46AM -2.9561 -65.3614 140° Southeast  Level Estimated
03:47AM -3.0572 -65.2760 140° Southeast  Level Estimated
03:48AM -3.1583 -65.1906 140° Southeast  Level Estimated
03:49AM -3.2594 -65.1052 140° Southeast  Level Estimated
03:50AM -3.3605 -65.0198 140° Southeast  Level Estimated
03:51AM -3.4616 -64.9344 140° Southeast  Level Estimated
03:52AM -3.5627 -64.8489 140° Southeast  Level Estimated
03:53AM -3.6637 -64.7635 140° Southeast  Level Estimated
03:54AM -3.7648 -64.6780 140° Southeast  Level Estimated
03:55AM -3.8658 -64.5925 140° Southeast  Level Estimated
03:56AM -3.9668 -64.5069 140° Southeast  Level Estimated
03:57AM -4.0679 -64.4214 140° Southeast  Level Estimated
03:58AM -4.1689 -64.3358 140° Southeast  Level Estimated
03:59AM -4.2699 -64.2502 140° Southeast  Level Estimated
04:00AM -4.3709 -64.1646 140° Southeast  Level Estimated
04:01AM -4.4719 -64.0790 140° Southeast  Level Estimated
04:02AM -4.5729 -63.9933 140° Southeast  Level Estimated
04:03AM -4.6738 -63.9076 140° Southeast  Level Estimated
04:04AM -4.7748 -63.8219 140° Southeast  Level Estimated
04:05AM -4.8758 -63.7362 140° Southeast  Level Estimated
04:06AM -4.9767 -63.6504 140° Southeast  Level Estimated
04:07AM -5.0776 -63.5646 140° Southeast  Level Estimated
04:08AM -5.1785 -63.4788 140° Southeast  Level Estimated
04:09AM -5.2794 -63.3930 140° Southeast  Level Estimated
04:10AM -5.3803 -63.3071 140° Southeast  Level Estimated
04:11AM -5.4812 -63.2212 140° Southeast  Level Estimated
04:12AM -5.5821 -63.1353 140° Southeast  Level Estimated
04:13AM -5.6829 -63.0493 140° Southeast  Level Estimated
04:14AM -5.7838 -62.9633 140° Southeast  Level Estimated
04:15AM -5.8846 -62.8773 140° Southeast  Level Estimated
04:16AM -5.9854 -62.7912 140° Southeast  Level Estimated
04:17AM -6.0862 -62.7052 140° Southeast  Level Estimated
04:18AM -6.1870 -62.6190 140° Southeast  Level Estimated
04:19AM -6.2877 -62.5329 140° Southeast  Level Estimated
04:20AM -6.3885 -62.4467 140° Southeast  Level Estimated
04:21AM -6.4893 -62.3605 140° Southeast  Level Estimated
04:22AM -6.5900 -62.2742 140° Southeast  Level Estimated
04:23AM -6.6907 -62.1880 140° Southeast  Level Estimated
04:24AM -6.7914 -62.1016 140° Southeast  Level Estimated
04:25AM -6.8921 -62.0153 140° Southeast  Level Estimated
04:26AM -6.9928 -61.9289 140° Southeast  Level Estimated
04:27AM -7.0934 -61.8425 140° Southeast  Level Estimated
04:28AM -7.1941 -61.7560 140° Southeast  Level Estimated
04:29AM -7.2947 -61.6695 140° Southeast  Level Estimated
04:30AM -7.3953 -61.5829 140° Southeast  Level Estimated
04:31AM -7.4959 -61.4963 140° Southeast  Level Estimated
04:32AM -7.5964 -61.4097 140° Southeast  Level Estimated
04:33AM -7.6970 -61.3230 140° Southeast  Level Estimated
04:34AM -7.7975 -61.2363 139° Southeast  Level Estimated
04:35AM -7.8981 -61.1496 139° Southeast  Level Estimated
04:36AM -7.9986 -61.0628 139° Southeast  Level Estimated
04:37AM -8.0990 -60.9760 139° Southeast  Level Estimated
04:38AM -8.1995 -60.8891 139° Southeast  Level Estimated
04:39AM -8.3000 -60.8022 139° Southeast  Level Estimated
04:40AM -8.4004 -60.7152 139° Southeast  Level Estimated
04:41AM -8.5008 -60.6282 139° Southeast  Level Estimated
04:42AM -8.6012 -60.5411 139° Southeast  Level Estimated
04:43AM -8.7016 -60.4540 139° Southeast  Level Estimated
04:44AM -8.8019 -60.3669 139° Southeast  Level Estimated
04:45AM -8.9022 -60.2797 139° Southeast  Level Estimated
04:46AM -9.0026 -60.1924 139° Southeast  Level Estimated
04:47AM -9.1028 -60.1051 139° Southeast  Level Estimated
04:48AM -9.2031 -60.0178 139° Southeast  Level Estimated
04:49AM -9.3034 -59.9304 139° Southeast  Level Estimated
04:50AM -9.4036 -59.8430 139° Southeast  Level Estimated
04:51AM -9.5038 -59.7555 139° Southeast  Level Estimated
04:52AM -9.6040 -59.6679 139° Southeast  Level Estimated
04:53AM -9.7041 -59.5803 139° Southeast  Level Estimated
04:54AM -9.8043 -59.4927 139° Southeast  Level Estimated
04:55AM -9.9044 -59.4050 139° Southeast  Level Estimated
04:56AM -10.0045 -59.3172 139° Southeast  Level Estimated
04:57AM -10.1044 -59.2296 139° Southeast  Level Estimated
04:58AM -10.2042 -59.1419 139° Southeast  Level Estimated
04:59AM -10.3041 -59.0541 139° Southeast  Level Estimated
05:00AM -10.4039 -58.9663 139° Southeast  Level Estimated
05:01AM -10.5037 -58.8784 139° Southeast  Level Estimated
05:02AM -10.6035 -58.7905 139° Southeast  Level Estimated
05:03AM -10.7032 -58.7025 139° Southeast  Level Estimated
05:04AM -10.8030 -58.6145 139° Southeast  Level Estimated
05:05AM -10.9027 -58.5264 139° Southeast  Level Estimated
05:06AM -11.0023 -58.4382 139° Southeast  Level Estimated
05:07AM -11.1020 -58.3500 139° Southeast  Level Estimated
05:08AM -11.2016 -58.2617 139° Southeast  Level Estimated
05:09AM -11.3012 -58.1734 139° Southeast  Level Estimated
05:10AM -11.4008 -58.0850 139° Southeast  Level Estimated
05:11AM -11.5003 -57.9965 139° Southeast  Level Estimated
05:12AM -11.5998 -57.9080 139° Southeast  Level Estimated
05:13AM -11.6993 -57.8194 139° Southeast  Level Estimated
05:14AM -11.7988 -57.7307 139° Southeast  Level Estimated
05:15AM -11.8982 -57.6420 139° Southeast  Level Estimated
05:16AM -11.9977 -57.5532 139° Southeast  Level Estimated
05:17AM -12.0970 -57.4644 139° Southeast  Level Estimated
05:18AM -12.1964 -57.3754 139° Southeast  Level Estimated
05:19AM -12.2957 -57.2865 139° Southeast  Level Estimated
05:20AM -12.3950 -57.1974 139° Southeast  Level Estimated
05:21AM -12.4943 -57.1083 139° Southeast  Level Estimated
05:22AM -12.5935 -57.0191 139° Southeast  Level Estimated
05:23AM -12.6927 -56.9298 139° Southeast  Level Estimated
05:24AM -12.7919 -56.8405 139° Southeast  Level Estimated
05:25AM -12.8911 -56.7511 139° Southeast  Level Estimated
05:26AM -12.9902 -56.6616 139° Southeast  Level Estimated
05:27AM -13.0893 -56.5721 139° Southeast  Level Estimated
05:28AM -13.1883 -56.4825 139° Southeast  Level Estimated
05:29AM -13.2874 -56.3928 139° Southeast  Level Estimated
05:30AM -13.3864 -56.3031 139° Southeast  Level Estimated
05:31AM -13.4853 -56.2132 139° Southeast  Level Estimated
05:32AM -13.5843 -56.1233 139° Southeast  Level Estimated
05:33AM -13.6832 -56.0333 139° Southeast  Level Estimated
05:34AM -13.7820 -55.9433 139° Southeast  Level Estimated
05:35AM -13.8808 -55.8531 138° Southeast  Level Estimated
05:36AM -13.9796 -55.7629 138° Southeast  Level Estimated
05:37AM -14.0784 -55.6726 138° Southeast  Level Estimated
05:38AM -14.1771 -55.5823 138° Southeast  Level Estimated
05:39AM -14.2759 -55.4919 138° Southeast  Level Estimated
05:40AM -14.3745 -55.4013 138° Southeast  Level Estimated
05:41AM -14.4731 -55.3107 138° Southeast  Level Estimated
05:42AM -14.5717 -55.2201 138° Southeast  Level Estimated
05:43AM -14.6703 -55.1293 138° Southeast  Level Estimated
05:44AM -14.7688 -55.0384 138° Southeast  Level Estimated
05:45AM -14.8673 -54.9475 138° Southeast  Level Estimated
05:46AM -14.9658 -54.8565 138° Southeast  Level Estimated
05:47AM -15.0642 -54.7654 138° Southeast  Level Estimated
05:48AM -15.1626 -54.6742 138° Southeast  Level Estimated
05:49AM -15.2609 -54.5830 138° Southeast  Level Estimated
05:50AM -15.3592 -54.4916 138° Southeast  Level Estimated
05:51AM -15.4575 -54.4002 138° Southeast  Level Estimated
05:52AM -15.5557 -54.3087 138° Southeast  Level Estimated
05:53AM -15.6539 -54.2170 138° Southeast  Level Estimated
05:54AM -15.7521 -54.1254 138° Southeast  Level Estimated
05:55AM -15.8502 -54.0336 138° Southeast  Level Estimated
05:56AM -15.9483 -53.9417 138° Southeast  Level Estimated
05:57AM -16.0463 -53.8497 138° Southeast  Level Estimated
05:58AM -16.1443 -53.7576 138° Southeast  Level Estimated
05:59AM -16.2423 -53.6655 138° Southeast  Level Estimated
06:00AM -16.3402 -53.5733 138° Southeast  Level Estimated
06:01AM -16.4381 -53.4809 138° Southeast  Level Estimated
06:02AM -16.5359 -53.3885 138° Southeast  Level Estimated
06:03AM -16.6337 -53.2960 138° Southeast  Level Estimated
06:04AM -16.7315 -53.2034 138° Southeast  Level Estimated
06:05AM -16.8292 -53.1107 138° Southeast  Level Estimated
06:06AM -16.9269 -53.0179 138° Southeast  Level Estimated
06:07AM -17.0245 -52.9250 138° Southeast  Level Estimated
06:08AM -17.1221 -52.8320 138° Southeast  Level Estimated
06:09AM -17.2197 -52.7389 138° Southeast  Level Estimated
06:10AM -17.3172 -52.6457 138° Southeast  Level Estimated
06:11AM -17.4146 -52.5524 138° Southeast  Level Estimated
06:12AM -17.5121 -52.4590 138° Southeast  Level Estimated
06:13AM -17.6094 -52.3655 138° Southeast  Level Estimated
06:14AM -17.7068 -52.2719 138° Southeast  Level Estimated
06:15AM -17.8041 -52.1782 137° Southeast  Level Estimated
06:16AM -17.9013 -52.0844 137° Southeast  Level Estimated
06:17AM -17.9985 -51.9905 137° Southeast  Level Estimated
06:18AM -18.0956 -51.8965 137° Southeast  Level Estimated
06:19AM -18.1928 -51.8024 137° Southeast  Level Estimated
06:20AM -18.2898 -51.7082 137° Southeast  Level Estimated
06:21AM -18.3868 -51.6139 137° Southeast  Level Estimated
06:22AM -18.4838 -51.5195 137° Southeast  Level Estimated
06:23AM -18.5807 -51.4249 137° Southeast  Level Estimated
06:24AM -18.6776 -51.3303 137° Southeast  Level Estimated
06:24AM -18.9370 -50.7350 137° Southeast 502 578 37,000  Level FlightAware
06:25AM -18.7744 -51.2356 137° Southeast  Level Estimated
06:25AM -19.0550 -50.6070 134° Southeast 502 578 37,000  Level FlightAware
06:25AM -19.1030 -50.5540 134° Southeast 502 578 37,000  Level FlightAware
06:26AM -19.1610 -50.4920 135° Southeast 502 578 37,000  Level FlightAware
06:26AM -19.2060 -50.4430 134° Southeast 502 578 37,000  Level FlightAware
06:27AM -19.2760 -50.3660 134° Southeast 503 579 37,000  Level FlightAware
06:28AM -19.3390 -50.2980 134° Southeast 507 583 37,000  Level FlightAware
06:28AM -19.4050 -50.2250 134° Southeast 507 583 37,000  Level FlightAware
06:29AM -19.4670 -50.1580 134° Southeast 508 585 37,000  Level FlightAware
06:29AM -19.5000 -50.1220 134° Southeast 508 585 37,000  Level FlightAware
06:30AM -19.5920 -50.0210 134° Southeast 509 586 37,000  Level FlightAware
06:31AM -19.6350 -49.9740 134° Southeast 509 586 37,000  Level FlightAware
06:31AM -19.7170 -49.8850 134° Southeast 510 587 37,000  Level FlightAware
06:32AM -19.7730 -49.8230 134° Southeast 510 587 37,000  Level FlightAware
06:33AM -19.8490 -49.7400 134° Southeast 510 587 37,000  Level FlightAware
06:33AM -19.9000 -49.6840 134° Southeast 512 589 37,000  Level FlightAware
06:34AM -19.9670 -49.6100 134° Southeast 510 587 37,000  Level FlightAware
06:35AM -20.0160 -49.5560 134° Southeast 509 586 37,000  Level FlightAware
06:35AM -20.0850 -49.4800 134° Southeast 509 586 37,000  Level FlightAware
06:36AM -20.1490 -49.4100 134° Southeast 508 585 37,000  Level FlightAware
06:36AM -20.2020 -49.3510 134° Southeast 509 586 37,000  Level FlightAware
06:37AM -20.2600 -49.2870 134° Southeast 509 586 37,000  Level FlightAware
06:37AM -20.3090 -49.2320 134° Southeast 509 586 37,000  Level FlightAware
06:38AM -20.3790 -49.1550 134° Southeast 512 589 37,000  Level FlightAware
06:39AM -20.4450 -49.0820 134° Southeast 511 588 37,000  Level FlightAware
06:40AM -20.5100 -49.0090 134° Southeast 511 588 37,000  Level FlightAware
06:40AM -20.5630 -48.9510 134° Southeast 513 590 37,000  Level FlightAware
06:41AM -20.6370 -48.8680 134° Southeast 514 592 37,000 -60 Level FlightAware
06:42AM -20.7510 -48.7430 134° Southeast 513 590 36,900 -360 Descending FlightAware
06:43AM -20.8200 -48.6750 137° Southeast 515 593 36,400 -960 Descending FlightAware
06:43AM -20.8790 -48.6220 140° Southeast 512 589 35,800 -1,140 Descending FlightAware
06:44AM -20.9550 -48.5540 140° Southeast 508 585 35,000 -1,140 Descending FlightAware
06:44AM -21.0170 -48.5000 141° Southeast 507 583 34,400 -1,200 Descending FlightAware
06:45AM -21.0790 -48.4450 140° Southeast 509 586 33,700 -1,200 Descending FlightAware
06:46AM -21.1410 -48.3910 141° Southeast 512 589 33,100 -960 Descending FlightAware
06:46AM -21.2320 -48.3090 140° Southeast 505 581 32,400 -1,140 Descending FlightAware
06:47AM -21.3040 -48.2460 141° Southeast 501 577 31,400 -1,260 Descending FlightAware
06:48AM -21.3600 -48.1960 140° Southeast 492 566 30,900 -1,140 Descending FlightAware
06:48AM -21.4380 -48.1270 141° Southeast 484 557 30,000 -1,080 Descending FlightAware
06:49AM -21.4990 -48.0720 140° Southeast 472 543 29,500 -780 Descending FlightAware
06:50AM -21.5690 -48.0100 141° Southeast 466 536 29,000 -600 Descending FlightAware
06:50AM -21.6340 -47.9510 140° Southeast 480 552 28,700 -900 Descending FlightAware
06:51AM -21.7090 -47.8850 141° Southeast 496 571 27,800 -1,320 Descending FlightAware
06:52AM -21.7650 -47.8340 140° Southeast 488 562 27,100 -1,140 Descending FlightAware
06:52AM -21.8300 -47.7750 140° Southeast 479 551 26,500 -1,020 Descending FlightAware
06:53AM -21.8870 -47.7250 141° Southeast 478 550 25,900 -1,020 Descending FlightAware
06:53AM -21.9520 -47.6660 140° Southeast 478 550 25,300 -840 Descending FlightAware
06:54AM -22.0330 -47.5930 140° Southeast 469 540 24,700 -780 Descending FlightAware
06:55AM -22.0890 -47.5430 140° Southeast 463 533 24,200 -780 Descending FlightAware
06:56AM -22.1720 -47.4680 140° Southeast 461 531 23,700 -720 Descending FlightAware
06:56AM -22.2280 -47.4210 142° Southeast 457 526 23,300 -780 Descending FlightAware
06:57AM -22.2930 -47.3820 151° Southeast 453 521 22,800 -780 Descending FlightAware
06:57AM -22.3460 -47.3190 132° Southeast 457 526 22,400 -660 Descending FlightAware
06:58AM -22.3930 -47.2700 136° Southeast 450 518 22,100 -660 Descending FlightAware
06:58AM -22.4510 -47.2170 140° Southeast 453 521 21,700 -720 Descending FlightAware
06:59AM -22.5220 -47.1510 139° Southeast 452 520 21,200 -720 Descending FlightAware
07:00AM -22.6010 -47.0890 144° Southeast 440 506 20,600 -780 Descending FlightAware
07:01AM -22.6760 -47.0560 158° South 415 478 20,100 -1,080 Descending FlightAware
07:01AM -22.7470 -47.0270 159° South 397 457 19,200 -1,560 Descending FlightAware
07:02AM -22.8490 -46.9840 159° South 386 444 17,500 -1,680 Descending FlightAware
07:03AM -22.9220 -46.9530 159° South 379 436 16,300 -1,680 Descending FlightAware
07:04AM -22.9900 -46.9240 159° South 370 426 15,200 -1,560 Descending FlightAware
07:04AM -23.0460 -46.9000 158° South 350 403 14,300 -2,640 Descending FlightAware
07:05AM -23.1110 -46.8740 160° South 336 387 11,700 -2,820 Descending FlightAware
07:06AM -23.1780 -46.8450 158° South 299 344 10,000 -2,100 Descending FlightAware
07:07AM -23.2280 -46.8150 151° Southeast 285 328 8,500 -2,280 Descending FlightAware
07:07AM -23.2690 -46.7860 147° Southeast 283 326 7,000 -2,160 Descending FlightAware
07:08AM -23.3110 -46.7570 148° Southeast 284 327 5,900 -1,200 Descending FlightAware
07:09AM -23.3520 -46.7290 148° Southeast 265 305 5,500 -540 Descending FlightAware
07:09AM -23.3860 -46.7050 147° Southeast 254 292 5,300 -180 Descending FlightAware
07:10AM -23.4310 -46.6730 147° Southeast 228 262 5,300 -120 Level FlightAware
07:10AM -23.4530 -46.6550 143° Southeast 214 246 5,200 -480 Descending FlightAware
07:11AM -23.4650 -46.6210 111° Southeast 199 229 4,800 -720 Descending FlightAware
07:11AM -23.4670 -46.6120 104° East 194 223 4,700 -1,080 Descending FlightAware
07:12AM -23.4580 -46.5580 80° East 182 209 3,600 -1,020 Descending FlightAware
07:13AM -23.4500 -46.5290 73° East 156 180 3,100 -840 Descending FlightAware
07:13AM -23.4430 -46.5010 75° East 155 178 2,600 -840 Descending FlightAware
07:14AM -23.4360 -46.4760 73° East 135 155 -3,900 Descending FlightAware
07:14AM -23.4340 -46.4690 73° East 92 106  Level FlightAware
07:15AM -23.4310 -46.4590 72° East 92 106  Level FlightAware